Time;durP1;ratioP1;P1;durP2;ratioP2;P2;SDS_P1;SDS_P2;PMS_P1;PMS_P2;Temp;Humidity;BMP_temperature;BMP_pressure;BME280_temperature;BME280_humidity;BME280_pressure;Samples;Min_cycle;Max_cycle;Signal;HPM_P1;HPM_P2
2021/03/09 00:02:13;;;;;;;42.22;23.45;;;6.70;78.70;;;;;;5051200;28;20025;-77
2021/03/09 00:04:38;;;;;;;44.72;25.00;;;6.70;78.90;;;;;;5051209;28;20099;-77
2021/03/09 00:07:04;;;;;;;45.42;25.05;;;6.70;79.30;;;;;;5052451;28;20021;-76
2021/03/09 00:09:30;;;;;;;40.65;25.27;;;6.70;79.60;;;;;;5050599;28;20124;-77
2021/03/09 00:11:55;;;;;;;46.85;26.33;;;6.70;79.70;;;;;;5051190;28;20075;-77
2021/03/09 00:14:21;;;;;;;46.72;27.55;;;6.70;79.80;;;;;;5051342;28;20029;-77
2021/03/09 00:16:47;;;;;;;41.85;25.63;;;6.70;79.80;;;;;;5052222;28;20032;-76
2021/03/09 00:19:12;;;;;;;49.35;27.67;;;6.70;79.90;;;;;;5051298;28;20485;-76
2021/03/09 00:21:38;;;;;;;44.67;26.73;;;6.70;80.00;;;;;;5052250;28;20043;-76
2021/03/09 00:24:04;;;;;;;50.78;28.42;;;6.70;80.10;;;;;;5051309;28;20033;-77
2021/03/09 00:26:29;;;;;;;51.90;28.75;;;6.70;80.10;;;;;;5050868;28;20033;-77
2021/03/09 00:28:55;;;;;;;50.85;27.80;;;6.70;80.10;;;;;;5063742;28;20033;-77
2021/03/09 00:31:21;;;;;;;50.97;29.02;;;6.70;80.20;;;;;;5054705;28;20029;-77
2021/03/09 00:33:46;;;;;;;50.38;29.40;;;6.70;80.20;;;;;;5054767;28;20083;-76
2021/03/09 00:36:12;;;;;;;56.53;30.08;;;6.70;80.30;;;;;;5054356;28;20481;-76
2021/03/09 00:38:37;;;;;;;50.88;29.63;;;6.70;80.40;;;;;;5037573;28;20041;-76
2021/03/09 00:41:03;;;;;;;50.58;29.30;;;6.70;80.50;;;;;;5054234;28;20035;-76
2021/03/09 00:43:29;;;;;;;54.42;30.70;;;6.70;80.60;;;;;;5037387;28;20390;-76
2021/03/09 00:45:54;;;;;;;53.83;31.77;;;6.70;80.90;;;;;;5054123;28;20029;-76
2021/03/09 00:48:20;;;;;;;49.65;29.40;;;6.60;81.00;;;;;;5036851;28;20064;-76
2021/03/09 00:50:45;;;;;;;54.05;30.67;;;6.60;81.10;;;;;;5053264;28;20029;-76
2021/03/09 00:53:11;;;;;;;54.47;30.05;;;6.60;81.10;;;;;;5054645;28;20170;-76
2021/03/09 00:55:37;;;;;;;50.83;29.70;;;6.70;81.20;;;;;;5053390;28;20040;-76
2021/03/09 00:58:02;;;;;;;58.17;32.85;;;6.70;81.30;;;;;;5036127;28;20093;-76
2021/03/09 01:00:30;;;;;;;58.50;32.30;;;6.60;81.40;;;;;;5054016;28;20473;-76
2021/03/09 01:02:55;;;;;;;61.83;32.15;;;6.60;81.60;;;;;;5052942;28;20115;-76
2021/03/09 01:05:22;;;;;;;59.30;33.88;;;6.60;81.80;;;;;;5053089;28;20478;-76
2021/03/09 01:07:48;;;;;;;59.33;33.03;;;6.50;82.00;;;;;;5052933;28;20025;-76
2021/03/09 01:10:15;;;;;;;55.13;32.50;;;6.50;82.40;;;;;;5036316;28;20114;-76
2021/03/09 01:12:41;;;;;;;59.75;31.70;;;6.50;82.50;;;;;;5053249;28;20036;-76
2021/03/09 01:15:07;;;;;;;55.15;31.23;;;6.40;82.30;;;;;;5054712;28;20029;-78
2021/03/09 01:17:33;;;;;;;54.80;31.17;;;6.40;82.50;;;;;;5053269;28;20033;-78
2021/03/09 01:19:59;;;;;;;53.20;30.00;;;6.40;82.50;;;;;;5053888;28;20469;-78
2021/03/09 01:22:25;;;;;;;56.20;31.90;;;6.40;82.60;;;;;;5020280;28;20374;-78
2021/03/09 01:24:51;;;;;;;56.83;30.48;;;6.40;82.80;;;;;;5053652;28;20070;-78
2021/03/09 01:27:17;;;;;;;58.63;31.60;;;6.40;82.90;;;;;;5054814;28;20028;-79
2021/03/09 01:29:42;;;;;;;59.63;32.97;;;6.40;82.90;;;;;;5036884;28;20029;-75
2021/03/09 01:32:08;;;;;;;65.97;35.33;;;6.40;83.30;;;;;;5054236;28;20499;-75
2021/03/09 01:34:34;;;;;;;65.57;36.20;;;6.30;83.70;;;;;;5052305;28;20039;-75
2021/03/09 01:37:00;;;;;;;66.30;35.50;;;6.30;83.60;;;;;;5053454;28;20426;-75
2021/03/09 01:39:25;;;;;;;67.97;36.95;;;6.20;83.60;;;;;;5051255;28;20061;-75
2021/03/09 01:41:51;;;;;;;65.18;35.10;;;6.10;83.90;;;;;;5053320;28;20095;-75
2021/03/09 01:44:17;;;;;;;62.97;35.25;;;6.00;84.30;;;;;;5036235;28;20028;-76
2021/03/09 01:46:44;;;;;;;72.60;38.17;;;6.00;84.60;;;;;;5052891;28;20351;-76
2021/03/09 01:49:13;;;;;;;82.25;38.00;;;5.90;85.30;;;;;;5053777;28;20049;-76
2021/03/09 01:51:39;;;;;;;72.32;38.67;;;5.90;85.30;;;;;;5053673;28;20029;-76
2021/03/09 01:54:05;;;;;;;82.20;40.30;;;5.80;85.20;;;;;;5052870;28;20033;-76
2021/03/09 01:56:31;;;;;;;73.55;38.00;;;5.70;85.60;;;;;;5035815;28;20666;-76
2021/03/09 01:58:58;;;;;;;71.55;38.10;;;5.70;85.80;;;;;;5036147;28;20513;-76
2021/03/09 02:01:23;;;;;;;66.90;35.72;;;5.70;86.10;;;;;;5053400;28;20021;-76
2021/03/09 02:03:50;;;;;;;66.72;35.47;;;5.70;86.10;;;;;;5052132;28;20112;-76
2021/03/09 02:06:16;;;;;;;59.83;32.92;;;5.60;86.30;;;;;;5051644;28;20013;-76
2021/03/09 02:08:44;;;;;;;63.45;33.90;;;5.70;86.30;;;;;;5035669;28;20035;-76
2021/03/09 02:11:35;;;;;;;62.15;33.80;;;5.70;86.10;;;;;;5053003;28;20109;-75
2021/03/09 02:14:24;;;;;;;69.38;35.95;;;5.70;86.30;;;;;;5051751;28;20029;-76
2021/03/09 02:17:15;;;;;;;58.63;32.70;;;5.70;86.40;;;;;;5022391;28;20483;-76
2021/03/09 02:19:59;;;;;;;64.50;34.60;;;5.70;86.30;;;;;;5051437;28;20279;-75
2021/03/09 02:22:43;;;;;;;63.08;33.92;;;5.70;86.60;;;;;;5052991;28;20534;-75
2021/03/09 02:25:33;;;;;;;60.60;33.08;;;5.70;86.50;;;;;;5053022;28;20037;-76
2021/03/09 02:28:20;;;;;;;63.03;34.95;;;5.70;86.60;;;;;;5050967;28;20028;-75
2021/03/09 02:30:47;;;;;;;64.70;33.40;;;5.70;86.70;;;;;;5052146;28;20028;-75
2021/03/09 02:33:19;;;;;;;70.68;36.63;;;5.70;86.60;;;;;;5054160;28;20104;-78
2021/03/09 02:35:58;;;;;;;67.07;35.00;;;5.70;87.00;;;;;;5053767;28;20057;-77
2021/03/09 02:38:25;;;;;;;;;;;5.60;87.00;;;;;;5052989;28;20040;-77
2021/03/09 02:40:55;;;;;;;62.85;33.33;;;5.60;87.10;;;;;;5069029;28;19912;-77
2021/03/09 02:43:22;;;;;;;64.47;34.03;;;5.50;87.30;;;;;;5053435;28;20044;-76
2021/03/09 02:45:50;;;;;;;68.20;34.67;;;5.60;87.20;;;;;;5035632;28;20083;-77
2021/03/09 02:48:19;;;;;;;64.80;34.13;;;5.60;87.00;;;;;;5052201;28;20103;-77
2021/03/09 02:50:47;;;;;;;64.00;33.15;;;5.60;87.00;;;;;;5053252;28;20041;-77
2021/03/09 02:53:14;;;;;;;63.53;34.22;;;5.60;86.90;;;;;;5053256;28;20441;-77
2021/03/09 02:55:42;;;;;;;65.22;34.35;;;5.60;86.80;;;;;;5053424;28;20460;-77
2021/03/09 02:58:09;;;;;;;64.65;34.42;;;5.60;86.90;;;;;;5051794;28;20021;-77
2021/03/09 03:00:40;;;;;;;65.78;35.13;;;5.60;87.00;;;;;;5052005;28;20064;-77
2021/03/09 03:03:08;;;;;;;69.32;35.95;;;5.60;87.20;;;;;;5052198;28;20111;-77
2021/03/09 03:05:36;;;;;;;67.85;36.25;;;5.60;87.10;;;;;;5053205;28;20021;-77
2021/03/09 03:08:07;;;;;;;68.50;36.17;;;5.60;87.20;;;;;;5052999;28;20043;-77
2021/03/09 03:10:34;;;;;;;73.43;36.85;;;5.60;87.30;;;;;;5053251;28;20028;-77
2021/03/09 03:13:01;;;;;;;76.55;38.08;;;5.60;87.50;;;;;;5051866;28;20021;-77
2021/03/09 03:15:28;;;;;;;68.80;36.50;;;5.60;87.50;;;;;;5052970;28;20388;-77
2021/03/09 03:17:56;;;;;;;57.22;32.38;;;5.60;87.40;;;;;;5053136;28;20483;-77
2021/03/09 03:20:22;;;;;;;61.22;33.80;;;5.60;87.30;;;;;;5051785;28;20028;-77
2021/03/09 03:22:49;;;;;;;64.95;34.75;;;5.60;87.40;;;;;;5051673;28;20033;-77
2021/03/09 03:25:15;;;;;;;66.30;36.58;;;5.60;87.40;;;;;;5052647;28;20465;-77
2021/03/09 03:27:42;;;;;;;70.18;36.17;;;5.60;87.70;;;;;;5051312;28;20075;-77
2021/03/09 03:30:11;;;;;;;61.88;34.00;;;5.60;87.70;;;;;;5053028;28;20087;-77
2021/03/09 03:32:37;;;;;;;63.45;34.60;;;5.50;87.80;;;;;;5053109;28;20033;-77
2021/03/09 03:35:06;;;;;;;67.07;35.80;;;5.50;87.80;;;;;;5051256;28;20086;-77
2021/03/09 03:37:32;;;;;;;67.28;35.40;;;5.60;87.90;;;;;;5051202;28;20029;-77
2021/03/09 03:39:58;;;;;;;64.00;34.95;;;5.60;88.00;;;;;;5051062;28;20116;-77
2021/03/09 03:42:24;;;;;;;72.68;36.97;;;5.60;87.90;;;;;;5065066;28;20061;-77
2021/03/09 03:44:50;;;;;;;63.38;35.22;;;5.60;88.00;;;;;;5027399;28;20477;-77
2021/03/09 03:47:15;;;;;;;70.45;35.72;;;5.60;88.00;;;;;;5034906;28;20089;-77
2021/03/09 03:49:41;;;;;;;65.95;36.00;;;5.60;88.10;;;;;;5052402;28;20056;-77
2021/03/09 03:52:18;;;;;;;66.03;35.70;;;5.60;87.90;;;;;;5051490;28;20036;-77
2021/03/09 03:54:51;;;;;;;78.22;38.95;;;5.60;88.00;;;;;;5052654;28;20493;-77
2021/03/09 03:57:46;;;;;;;76.68;38.70;;;5.60;88.10;;;;;;5052755;28;20413;-77
2021/03/09 04:00:18;;;;;;;69.35;37.67;;;5.50;88.40;;;;;;5049876;28;20474;-77
2021/03/09 04:02:46;;;;;;;75.78;36.97;;;5.50;88.50;;;;;;5055559;28;20028;-77
2021/03/09 04:05:13;;;;;;;67.70;36.42;;;5.50;88.60;;;;;;5055293;28;20028;-77
2021/03/09 04:07:39;;;;;;;79.35;39.35;;;5.50;88.60;;;;;;5056361;28;20096;-76
2021/03/09 04:10:06;;;;;;;71.65;38.42;;;5.50;88.80;;;;;;5055158;28;20112;-77
2021/03/09 04:12:33;;;;;;;81.22;40.28;;;5.50;89.10;;;;;;5054927;28;20025;-77
2021/03/09 04:14:59;;;;;;;70.90;37.05;;;5.50;89.70;;;;;;5056471;28;20016;-77
2021/03/09 04:17:27;;;;;;;68.13;38.00;;;5.50;89.00;;;;;;5056329;28;20033;-77
2021/03/09 04:19:55;;;;;;;71.28;37.00;;;5.40;89.10;;;;;;5056161;28;20497;-77
2021/03/09 04:22:23;;;;;;;75.30;38.27;;;5.40;89.10;;;;;;5054824;28;20021;-77
2021/03/09 04:24:50;;;;;;;70.57;37.05;;;5.50;89.00;;;;;;5054588;28;20279;-77
2021/03/09 04:27:22;;;;;;;70.90;38.58;;;5.50;89.60;;;;;;5056118;28;20071;-77
2021/03/09 04:29:53;;;;;;;71.43;38.35;;;5.40;88.80;;;;;;5054828;28;20055;-77
2021/03/09 04:32:20;;;;;;;78.47;40.25;;;5.40;88.90;;;;;;5054342;28;20612;-77
2021/03/09 04:34:47;;;;;;;70.68;38.28;;;5.40;89.00;;;;;;5054465;28;20040;-77
2021/03/09 04:37:14;;;;;;;65.28;35.80;;;5.40;89.20;;;;;;5055901;28;20028;-77
2021/03/09 04:39:41;;;;;;;80.85;41.47;;;5.40;89.20;;;;;;5054612;28;20420;-77
2021/03/09 04:42:08;;;;;;;71.40;39.47;;;5.40;89.30;;;;;;5054476;28;20029;-77
2021/03/09 04:44:33;;;;;;;78.00;41.38;;;5.40;89.30;;;;;;5054442;28;20474;-77
2021/03/09 04:47:00;;;;;;;76.00;40.10;;;5.40;89.50;;;;;;5055823;28;20033;-77
2021/03/09 04:49:26;;;;;;;73.68;39.75;;;5.40;89.50;;;;;;5055277;28;20132;-77
2021/03/09 04:51:52;;;;;;;79.72;39.70;;;5.40;89.50;;;;;;5037492;28;20071;-76
2021/03/09 04:54:18;;;;;;;69.03;38.33;;;5.40;89.50;;;;;;5053868;28;20037;-77
2021/03/09 04:56:43;;;;;;;69.88;37.08;;;5.40;89.50;;;;;;5054106;28;20021;-77
2021/03/09 04:59:09;;;;;;;77.20;39.75;;;5.40;89.60;;;;;;5054059;28;20092;-77
2021/03/09 05:01:35;;;;;;;72.55;37.67;;;5.40;89.70;;;;;;5037499;28;20035;-77
2021/03/09 05:04:00;;;;;;;73.75;39.15;;;5.40;89.60;;;;;;5055298;28;20488;-77
2021/03/09 05:06:26;;;;;;;75.43;39.80;;;5.40;89.60;;;;;;5037409;28;20029;-77
2021/03/09 05:08:51;;;;;;;73.75;38.47;;;5.40;89.60;;;;;;5037528;28;20025;-77
2021/03/09 05:11:17;;;;;;;67.35;36.97;;;5.40;89.70;;;;;;5053600;28;20498;-77
2021/03/09 05:13:43;;;;;;;67.35;36.38;;;5.30;90.10;;;;;;5053919;28;20053;-77
2021/03/09 05:16:08;;;;;;;73.25;40.38;;;5.30;89.80;;;;;;5055300;28;20029;-77
2021/03/09 05:18:34;;;;;;;68.43;36.47;;;5.40;90.00;;;;;;5053825;28;20028;-77
2021/03/09 05:20:59;;;;;;;69.20;37.20;;;5.30;89.80;;;;;;5036953;28;20544;-77
2021/03/09 05:23:25;;;;;;;82.15;41.67;;;5.30;89.90;;;;;;5053442;28;20120;-77
2021/03/09 05:25:50;;;;;;;75.95;38.88;;;5.30;90.00;;;;;;5037028;28;20029;-77
2021/03/09 05:28:16;;;;;;;70.95;37.90;;;5.30;90.00;;;;;;5036937;28;20036;-77
2021/03/09 05:30:42;;;;;;;74.47;40.28;;;5.30;90.20;;;;;;5053733;28;20031;-77
2021/03/09 05:33:07;;;;;;;86.22;42.47;;;5.30;90.20;;;;;;5036233;28;20029;-77
2021/03/09 05:35:33;;;;;;;82.25;41.42;;;5.20;90.20;;;;;;5052887;28;20029;-77
2021/03/09 05:37:59;;;;;;;75.32;40.08;;;5.20;90.30;;;;;;5052354;28;20036;-77
2021/03/09 05:40:24;;;;;;;74.10;39.72;;;5.20;90.30;;;;;;5042766;28;20044;-77
2021/03/09 05:42:52;;;;;;;72.93;38.70;;;5.20;90.40;;;;;;5052279;28;20029;-76
2021/03/09 05:45:19;;;;;;;71.43;37.63;;;5.20;90.40;;;;;;5081849;28;20029;-77
2021/03/09 05:47:44;;;;;;;76.03;38.15;;;5.20;90.40;;;;;;5052041;28;20035;-77
2021/03/09 05:50:11;;;;;;;72.78;36.75;;;5.20;90.40;;;;;;5052928;28;20036;-77
2021/03/09 05:52:38;;;;;;;70.03;36.53;;;5.20;90.30;;;;;;5053305;28;20041;-76
2021/03/09 05:55:09;;;;;;;71.45;37.78;;;5.30;90.30;;;;;;5054431;28;20032;-77
2021/03/09 05:57:35;;;;;;;69.60;37.33;;;5.30;90.40;;;;;;5052660;28;20517;-75
2021/03/09 06:00:02;;;;;;;70.57;38.35;;;5.20;90.40;;;;;;5052615;28;20068;-75
2021/03/09 06:02:29;;;;;;;76.70;38.28;;;5.30;90.40;;;;;;5053268;28;20032;-75
2021/03/09 06:04:55;;;;;;;67.65;37.28;;;5.30;90.40;;;;;;5053654;28;20465;-75
2021/03/09 06:07:20;;;;;;;72.85;38.92;;;5.30;90.40;;;;;;5053806;28;20037;-75
2021/03/09 06:09:47;;;;;;;68.47;37.97;;;5.30;90.40;;;;;;5027706;28;20056;-75
2021/03/09 06:21:12;;;;;;;82.03;42.85;;;5.30;90.50;;;;;;5051580;28;21178;-75
2021/03/09 06:23:39;;;;;;;77.05;39.53;;;5.30;90.50;;;;;;5052347;28;20028;-75
2021/03/09 06:26:39;;;;;;;87.50;42.15;;;5.30;90.50;;;;;;5034942;28;20029;-75
2021/03/09 06:29:25;;;;;;;72.40;37.67;;;5.20;90.60;;;;;;5036054;28;20069;-75
2021/03/09 06:31:56;;;;;;;80.63;39.55;;;5.20;90.70;;;;;;5040730;28;20112;-74
2021/03/09 06:34:26;;;;;;;78.95;40.45;;;5.30;90.70;;;;;;5051986;28;20028;-75
2021/03/09 06:37:05;;;;;;;78.25;38.70;;;5.20;90.70;;;;;;5038799;28;20614;-75
2021/03/09 06:40:03;;;;;;;72.75;37.47;;;5.20;90.80;;;;;;5052399;28;20040;-75
2021/03/09 06:42:29;;;;;;;75.47;36.20;;;5.20;90.70;;;;;;5050775;28;20025;-75
2021/03/09 06:45:00;;;;;;;69.68;37.17;;;5.20;90.70;;;;;;5051304;28;20044;-75
2021/03/09 06:47:45;;;;;;;73.30;38.22;;;5.30;90.70;;;;;;5052719;28;20554;-75
2021/03/09 06:50:12;;;;;;;73.43;37.65;;;5.30;90.70;;;;;;5052986;28;20061;-75
2021/03/09 06:52:39;;;;;;;70.00;38.33;;;5.20;90.80;;;;;;5052835;28;20025;-75
2021/03/09 06:55:07;;;;;;;67.68;37.80;;;5.30;90.80;;;;;;5052126;28;20116;-75
2021/03/09 06:57:33;;;;;;;69.43;37.05;;;5.30;90.80;;;;;;5052046;28;20036;-75
2021/03/09 06:59:59;;;;;;;69.20;37.40;;;5.30;90.90;;;;;;5055443;28;20047;-75
2021/03/09 07:02:26;;;;;;;73.25;38.10;;;5.30;90.80;;;;;;5043734;28;20119;-75
2021/03/09 07:05:04;;;;;;;70.28;37.30;;;5.30;90.80;;;;;;5061439;28;20098;-75
2021/03/09 07:07:34;;;;;;;70.97;36.33;;;5.30;90.80;;;;;;5052661;28;20059;-75
2021/03/09 07:10:06;;;;;;;73.97;37.83;;;5.30;90.90;;;;;;5052720;28;20028;-75
2021/03/09 07:12:32;;;;;;;65.07;35.53;;;5.40;90.90;;;;;;5051638;28;20394;-75
2021/03/09 07:14:59;;;;;;;62.33;35.00;;;5.40;90.90;;;;;;5053005;28;20473;-75
2021/03/09 07:17:30;;;;;;;58.70;33.28;;;5.40;90.80;;;;;;5035197;28;20123;-75
2021/03/09 07:19:58;;;;;;;64.32;35.03;;;5.40;90.80;;;;;;5052906;28;20053;-75
2021/03/09 07:22:25;;;;;;;68.65;37.83;;;5.50;90.80;;;;;;5053059;28;20021;-75
2021/03/09 07:25:16;;;;;;;64.65;34.90;;;5.50;90.80;;;;;;5051511;28;20545;-75
2021/03/09 07:28:04;;;;;;;62.15;34.47;;;5.50;90.80;;;;;;5052850;28;20017;-75
2021/03/09 07:30:37;;;;;;;65.57;34.17;;;5.50;90.80;;;;;;5051161;28;20021;-75
2021/03/09 07:33:04;;;;;;;72.43;35.53;;;5.50;90.80;;;;;;5035591;28;20041;-75
2021/03/09 07:35:30;;;;;;;72.68;38.17;;;5.40;90.80;;;;;;5045838;28;20044;-75
2021/03/09 07:37:56;;;;;;;67.43;36.42;;;5.50;90.90;;;;;;5054483;28;20389;-75
2021/03/09 07:40:24;;;;;;;67.57;35.15;;;5.50;90.90;;;;;;5055184;28;20068;-75
2021/03/09 07:42:50;;;;;;;69.53;36.13;;;5.50;90.90;;;;;;5055942;28;20021;-74
2021/03/09 07:45:18;;;;;;;80.13;40.03;;;5.40;90.90;;;;;;5056562;28;20021;-75
2021/03/09 07:47:52;;;;;;;79.07;40.77;;;5.50;90.90;;;;;;5056377;28;20419;-75
2021/03/09 07:50:19;;;;;;;67.90;36.10;;;5.50;91.10;;;;;;5054257;28;20044;-75
2021/03/09 07:53:14;;;;;;;68.32;37.55;;;5.40;91.10;;;;;;5055483;28;20647;-77
2021/03/09 07:55:40;;;;;;;67.78;36.47;;;5.40;91.20;;;;;;5056722;28;20489;-77
2021/03/09 07:58:27;;;;;;;86.60;42.88;;;5.40;91.40;;;;;;5056380;28;20040;-77
2021/03/09 08:00:58;;;;;;;88.93;42.80;;;5.50;91.20;;;;;;5055487;28;20477;-77
2021/03/09 08:03:35;;;;;;;75.88;38.88;;;5.40;91.20;;;;;;5055144;28;20033;-75
2021/03/09 08:06:05;;;;;;;74.00;40.10;;;5.40;91.40;;;;;;5055798;28;20021;-75
2021/03/09 08:08:46;;;;;;;86.60;42.53;;;5.40;91.30;;;;;;5054939;28;20037;-75
2021/03/09 08:11:24;;;;;;;95.28;43.53;;;5.40;91.50;;;;;;5056141;28;20033;-75
2021/03/09 08:13:53;;;;;;;86.03;43.30;;;5.40;91.50;;;;;;5056209;28;20032;-75
2021/03/09 08:16:25;;;;;;;81.60;40.75;;;5.40;91.60;;;;;;5051743;28;20115;-76
2021/03/09 08:18:52;;;;;;;73.57;39.65;;;5.50;91.60;;;;;;5052356;28;20072;-75
2021/03/09 08:21:19;;;;;;;74.00;39.10;;;5.50;91.60;;;;;;5056081;28;20114;-75
2021/03/09 08:23:47;;;;;;;72.50;38.60;;;5.50;91.60;;;;;;5054687;28;20492;-75
2021/03/09 08:26:25;;;;;;;78.00;40.45;;;5.60;91.50;;;;;;5056147;28;20029;-75
2021/03/09 08:28:50;;;;;;;78.97;41.40;;;5.60;91.50;;;;;;5054367;28;20021;-75
2021/03/09 08:31:19;;;;;;;98.50;44.35;;;5.60;91.40;;;;;;5054776;28;20484;-75
2021/03/09 08:34:11;;;;;;;85.95;43.22;;;5.60;91.50;;;;;;5055313;28;20028;-75
2021/03/09 08:36:37;;;;;;;76.68;42.47;;;5.60;91.60;;;;;;5043479;28;20128;-75
2021/03/09 08:39:03;;;;;;;97.97;46.17;;;5.60;91.60;;;;;;5040787;28;20108;-75
2021/03/09 08:41:49;;;;;;;89.65;43.55;;;5.60;91.80;;;;;;5054151;28;20025;-78
2021/03/09 08:44:20;;;;;;;72.57;39.35;;;5.60;91.90;;;;;;5055074;28;20017;-78
2021/03/09 08:47:05;;;;;;;80.07;39.90;;;5.60;91.90;;;;;;5055289;28;20029;-78
2021/03/09 08:49:34;;;;;;;87.43;42.00;;;5.70;92.00;;;;;;5045823;28;20033;-78
2021/03/09 08:52:07;;;;;;;107.45;46.33;;;5.60;91.90;;;;;;5053182;28;20025;-78
2021/03/09 08:54:35;;;;;;;92.22;45.70;;;5.70;92.00;;;;;;5054496;28;20044;-78
2021/03/09 08:57:23;;;;;;;73.82;39.95;;;5.70;92.00;;;;;;5053326;28;20036;-78
2021/03/09 09:00:10;;;;;;;86.68;44.35;;;5.70;92.00;;;;;;5052713;28;20095;-75
2021/03/09 09:02:42;;;;;;;70.85;39.20;;;5.70;92.20;;;;;;5054216;28;20029;-75
2021/03/09 09:05:09;;;;;;;78.78;41.50;;;5.70;92.50;;;;;;5050628;28;20039;-75
2021/03/09 09:07:42;;;;;;;91.25;45.22;;;5.80;92.20;;;;;;5052926;28;20036;-75
2021/03/09 09:10:10;;;;;;;130.82;54.03;;;5.80;92.30;;;;;;5052984;28;20112;-75
2021/03/09 09:12:40;;;;;;;99.57;48.65;;;5.80;92.30;;;;;;5054508;28;20025;-75
2021/03/09 09:15:17;;;;;;;134.20;54.33;;;5.80;92.40;;;;;;5053454;28;20021;-75
2021/03/09 09:17:46;;;;;;;91.97;45.97;;;5.80;92.40;;;;;;5053941;28;20391;-75
2021/03/09 09:20:33;;;;;;;98.07;48.00;;;5.90;92.40;;;;;;5054080;28;20024;-76
2021/03/09 09:23:06;;;;;;;99.10;49.60;;;5.90;92.40;;;;;;5052128;28;20025;-75
2021/03/09 09:25:36;;;;;;;91.00;46.47;;;5.90;92.40;;;;;;5052370;28;20036;-75
2021/03/09 09:28:02;;;;;;;91.43;45.08;;;5.90;92.40;;;;;;5052466;28;20021;-75
2021/03/09 09:30:46;;;;;;;100.15;49.03;;;5.90;92.30;;;;;;5054001;28;20584;-76
2021/03/09 09:33:12;;;;;;;103.03;49.42;;;5.90;92.20;;;;;;5054314;28;20477;-76
2021/03/09 09:35:40;;;;;;;118.22;51.92;;;6.00;92.20;;;;;;5036383;28;20033;-76
2021/03/09 09:38:08;;;;;;;119.05;51.67;;;6.10;92.40;;;;;;5052458;28;20025;-76
2021/03/09 09:40:55;;;;;;;103.25;49.20;;;6.00;92.70;;;;;;5053757;28;20044;-76
2021/03/09 09:43:22;;;;;;;110.57;51.35;;;6.10;92.50;;;;;;5053171;28;20024;-76
2021/03/09 09:45:53;;;;;;;103.63;48.67;;;6.10;92.50;;;;;;5051256;28;20485;-76
2021/03/09 09:48:22;;;;;;;105.85;47.60;;;6.10;92.50;;;;;;5051652;28;20029;-76
2021/03/09 09:50:50;;;;;;;86.55;44.67;;;6.20;92.40;;;;;;5031329;28;599409;-76
2021/03/09 09:53:30;;;;;;;102.68;46.15;;;6.20;92.40;;;;;;5053308;28;20405;-76
2021/03/09 09:55:56;;;;;;;109.47;48.38;;;6.30;92.30;;;;;;5041796;28;20021;-76
2021/03/09 09:58:22;;;;;;;99.53;46.50;;;6.30;92.30;;;;;;5052336;28;20021;-76
2021/03/09 10:00:55;;;;;;;101.28;47.05;;;6.30;92.30;;;;;;5052984;28;20043;-76
2021/03/09 10:03:21;;;;;;;93.75;46.10;;;6.40;92.40;;;;;;5054303;28;20029;-76
2021/03/09 10:05:46;;;;;;;94.03;45.65;;;6.40;92.30;;;;;;5052946;28;20501;-76
2021/03/09 10:08:31;;;;;;;114.45;48.55;;;6.40;92.30;;;;;;5053023;28;20055;-76
2021/03/09 10:11:02;;;;;;;106.35;47.72;;;6.40;92.40;;;;;;5054257;28;20017;-76
2021/03/09 10:13:28;;;;;;;86.78;44.03;;;6.30;92.40;;;;;;5052996;28;20477;-76
2021/03/09 10:15:54;;;;;;;104.38;48.08;;;6.40;92.50;;;;;;5052908;28;20029;-76
2021/03/09 10:18:31;;;;;;;98.55;46.40;;;6.40;92.40;;;;;;5052775;28;20446;-76
2021/03/09 10:21:18;;;;;;;81.85;41.78;;;6.40;92.50;;;;;;5052738;28;20021;-76
2021/03/09 10:23:53;;;;;;;97.97;45.53;;;6.50;92.60;;;;;;5052892;28;20025;-76
2021/03/09 10:26:26;;;;;;;95.07;44.13;;;6.50;92.90;;;;;;5053889;28;20021;-76
2021/03/09 10:29:02;;;;;;;88.50;41.83;;;6.70;92.60;;;;;;5053834;28;20036;-76
2021/03/09 10:31:59;;;;;;;69.25;36.40;;;6.70;92.80;;;;;;5052475;28;20056;-76
2021/03/09 10:34:38;;;;;;;87.35;40.85;;;6.80;92.70;;;;;;5052609;28;20481;-76
2021/03/09 10:37:05;;;;;;;90.45;43.20;;;6.90;92.50;;;;;;5052361;28;20112;-76
2021/03/09 10:39:34;;;;;;;98.07;44.53;;;7.10;92.60;;;;;;5052119;28;20037;-76
2021/03/09 10:42:18;;;;;;;;;;;7.20;92.80;;;;;;5053440;28;20363;-76
2021/03/09 10:44:44;;;;;;;66.60;34.15;;;7.20;92.60;;;;;;5053243;28;19909;-76
2021/03/09 10:47:12;;;;;;;72.55;36.30;;;7.30;92.60;;;;;;5052121;28;20163;-76
2021/03/09 10:49:38;;;;;;;67.47;34.47;;;7.40;92.70;;;;;;5085034;28;20057;-76
2021/03/09 10:52:05;;;;;;;83.22;37.15;;;7.50;92.50;;;;;;5051533;28;20029;-75
2021/03/09 10:54:32;;;;;;;61.78;33.30;;;7.60;92.30;;;;;;5052809;28;20412;-75
2021/03/09 10:56:58;;;;;;;58.35;33.17;;;7.60;92.10;;;;;;5035679;28;20128;-76
2021/03/09 10:59:25;;;;;;;60.53;31.83;;;7.60;92.00;;;;;;5052005;28;20036;-76
2021/03/09 11:01:52;;;;;;;59.97;29.85;;;7.60;92.00;;;;;;5051930;28;20466;-76
2021/03/09 11:04:18;;;;;;;46.15;27.58;;;7.70;92.10;;;;;;5051968;28;20497;-76
2021/03/09 11:06:44;;;;;;;47.50;27.05;;;7.70;92.00;;;;;;5052120;28;20025;-76
2021/03/09 11:09:09;;;;;;;42.65;25.67;;;7.70;91.70;;;;;;5035310;28;20433;-75
2021/03/09 11:11:35;;;;;;;48.88;26.67;;;7.70;91.60;;;;;;5051874;28;20454;-77
2021/03/09 11:14:01;;;;;;;47.78;26.90;;;7.60;91.50;;;;;;5052014;28;20488;-76
2021/03/09 11:16:30;;;;;;;44.75;25.20;;;7.60;91.80;;;;;;5052124;28;20099;-76
2021/03/09 11:18:56;;;;;;;51.22;28.27;;;7.60;91.80;;;;;;5034931;28;20036;-76
2021/03/09 11:21:21;;;;;;;53.88;28.08;;;7.60;91.80;;;;;;5051746;28;20382;-75
2021/03/09 11:23:51;;;;;;;52.08;28.88;;;7.60;91.80;;;;;;5018563;28;20052;-76
2021/03/09 11:26:17;;;;;;;;;;;7.60;92.20;;;;;;5053142;28;20017;-75
2021/03/09 11:28:43;;;;;;;47.60;26.35;;;7.50;92.00;;;;;;5051876;28;19916;-76
2021/03/09 11:31:08;;;;;;;52.58;28.10;;;7.50;92.00;;;;;;5052179;28;20386;-75
2021/03/09 11:33:34;;;;;;;51.45;27.52;;;7.50;92.00;;;;;;5051011;28;20094;-75
2021/03/09 11:36:00;;;;;;;56.60;27.75;;;7.50;92.00;;;;;;5050864;28;20168;-75
2021/03/09 11:38:25;;;;;;;54.55;28.70;;;7.50;92.20;;;;;;5034084;28;20082;-75
2021/03/09 11:40:51;;;;;;;61.20;32.20;;;7.50;92.40;;;;;;5050740;28;20029;-76
2021/03/09 11:43:17;;;;;;;70.95;32.80;;;7.50;92.40;;;;;;5034312;28;20025;-75
2021/03/09 11:45:42;;;;;;;56.55;30.70;;;7.60;92.60;;;;;;5050878;28;20397;-76
2021/03/09 11:48:08;;;;;;;52.17;28.38;;;7.60;92.60;;;;;;5033879;28;20033;-75
2021/03/09 11:50:34;;;;;;;62.80;30.98;;;7.60;92.40;;;;;;5051144;28;20049;-80
2021/03/09 11:53:02;;;;;;;62.33;31.13;;;7.70;92.30;;;;;;5046982;28;21375;-79
2021/03/09 11:55:28;;;;;;;59.87;29.73;;;7.60;92.10;;;;;;5046688;28;20142;-82
2021/03/09 11:57:54;;;;;;;52.35;27.65;;;7.60;92.20;;;;;;5030708;28;20136;-82
2021/03/09 12:00:21;;;;;;;60.75;31.88;;;7.60;92.20;;;;;;5031116;28;20025;-81
2021/03/09 12:02:47;;;;;;;48.42;26.67;;;7.70;92.40;;;;;;5047656;28;20091;-81
2021/03/09 12:05:13;;;;;;;50.53;25.23;;;7.80;92.30;;;;;;5047854;28;20033;-82
2021/03/09 12:07:39;;;;;;;48.10;25.02;;;8.00;92.30;;;;;;5031632;28;20082;-81
2021/03/09 12:10:06;;;;;;;45.88;24.95;;;8.10;91.50;;;;;;5034166;28;20094;-82
2021/03/09 12:12:31;;;;;;;41.63;22.80;;;8.20;91.50;;;;;;5045977;28;20481;-81
2021/03/09 12:14:57;;;;;;;38.00;22.30;;;8.30;91.20;;;;;;5047826;28;20029;-81
2021/03/09 12:17:22;;;;;;;33.60;19.80;;;8.40;91.20;;;;;;5047798;28;20025;-82
2021/03/09 12:19:48;;;;;;;33.35;20.70;;;8.50;91.00;;;;;;5048990;28;20025;-81
2021/03/09 12:22:14;;;;;;;30.95;19.33;;;8.70;90.80;;;;;;5029889;28;20021;-81
2021/03/09 12:24:39;;;;;;;32.65;19.75;;;8.80;90.70;;;;;;5034519;28;20029;-81
2021/03/09 12:27:05;;;;;;;29.95;18.75;;;9.00;90.40;;;;;;5051305;28;20037;-82
2021/03/09 12:29:31;;;;;;;29.23;17.63;;;9.00;90.20;;;;;;5034892;28;20086;-82
2021/03/09 12:31:56;;;;;;;26.83;15.60;;;8.90;90.20;;;;;;5034524;28;20448;-82
2021/03/09 12:34:22;;;;;;;26.38;15.98;;;8.80;89.50;;;;;;5051417;28;20044;-81
2021/03/09 12:36:48;;;;;;;23.45;14.45;;;8.70;88.60;;;;;;5052354;28;20029;-82
2021/03/09 12:39:13;;;;;;;22.17;14.55;;;8.60;89.10;;;;;;5034742;28;20032;-82
2021/03/09 12:41:39;;;;;;;24.42;15.18;;;8.50;89.20;;;;;;5034368;28;20043;-81
2021/03/09 12:44:05;;;;;;;26.00;15.63;;;8.40;89.60;;;;;;5051114;28;20458;-81
2021/03/09 12:46:30;;;;;;;24.08;15.30;;;8.30;89.70;;;;;;5034469;28;20021;-81
2021/03/09 12:48:56;;;;;;;25.67;15.65;;;8.20;89.90;;;;;;5067270;28;20124;-81
2021/03/09 12:51:22;;;;;;;27.30;15.63;;;8.20;90.00;;;;;;5033368;28;20367;-81
2021/03/09 12:53:47;;;;;;;22.60;13.43;;;8.20;90.30;;;;;;5050412;28;20078;-82
2021/03/09 12:56:13;;;;;;;25.08;15.18;;;8.10;90.10;;;;;;5033270;28;20090;-82
2021/03/09 12:58:38;;;;;;;21.58;13.85;;;8.00;89.80;;;;;;5034398;28;20612;-81